createdAt,value
2023-01-18T00:04:49.630Z,9.60
2023-01-18T00:09:53.166Z,9.70
2023-01-18T00:14:56.034Z,8.93
2023-01-18T00:19:58.873Z,11.23
2023-01-18T00:25:01.690Z,10.63
2023-01-18T00:30:06.298Z,10.23
2023-01-18T05:33:09.171Z,4.17
2023-01-18T05:38:14.732Z,3.20
2023-01-18T05:43:18.507Z,3.43
2023-01-18T05:48:21.719Z,4.00
2023-01-18T05:53:25.202Z,3.93
2023-01-18T05:58:28.688Z,3.80
2023-01-18T06:03:31.844Z,4.20
2023-01-18T06:08:36.917Z,3.73
2023-01-18T06:13:39.925Z,4.67
2023-01-18T06:18:42.925Z,5.07
2023-01-18T06:23:51.643Z,4.83
2023-01-18T06:28:54.507Z,5.27
2023-01-18T06:33:57.455Z,5.27
2023-01-18T06:39:02.612Z,5.80
2023-01-18T06:44:06.043Z,5.30
2023-01-18T06:49:11.218Z,5.00
2023-01-18T06:54:15.600Z,6.47
2023-01-18T06:59:18.457Z,6.07
2023-01-18T07:04:23.198Z,6.50
2023-01-18T07:09:28.961Z,4.43
2023-01-18T07:14:31.827Z,5.90
2023-01-18T07:19:34.946Z,4.70
2023-01-18T07:24:40.497Z,5.00
2023-01-18T07:29:43.404Z,5.73
2023-01-18T07:34:46.285Z,5.37
2023-01-18T07:39:51.623Z,5.90
2023-01-18T07:44:54.579Z,5.37
2023-01-18T07:49:57.546Z,5.30
2023-01-18T07:55:00.495Z,6.10
2023-01-18T08:00:07.121Z,6.97
2023-01-18T08:05:10.860Z,7.37
2023-01-18T08:10:15.220Z,7.70
2023-01-18T08:15:18.311Z,6.23
2023-01-18T08:20:21.996Z,8.07
2023-01-18T08:25:31.214Z,6.57
2023-01-18T08:30:43.630Z,7.13
2023-01-18T08:35:50.103Z,7.17
2023-01-18T08:40:53.262Z,6.47
2023-01-18T08:46:02.224Z,7.73
2023-01-18T08:51:05.695Z,6.77
2023-01-18T08:56:09.514Z,6.77
2023-01-18T09:01:15.558Z,6.20
2023-01-18T09:06:19.098Z,6.03
2023-01-18T09:11:22.440Z,7.10
2023-01-18T09:16:26.034Z,6.57
2023-01-18T09:21:29.349Z,6.67
2023-01-18T09:26:32.451Z,8.83
2023-01-18T09:31:35.916Z,7.27
2023-01-18T09:36:42.623Z,8.00
2023-01-18T09:42:10.320Z,5.80
2023-01-18T09:53:08.039Z,4.50
2023-01-18T09:58:51.155Z,4.97
2023-01-18T10:03:59.816Z,5.50
2023-01-18T10:09:10.680Z,5.73
2023-01-18T10:14:36.006Z,4.47
2023-01-18T10:25:45.951Z,4.33
2023-01-18T10:30:58.191Z,4.40
2023-01-18T10:36:05.758Z,5.27
2023-01-18T10:41:22.890Z,5.50
2023-01-18T10:46:29.174Z,5.73
2023-01-18T10:51:36.701Z,6.73
2023-01-18T10:56:40.038Z,6.77
2023-01-18T11:01:54.450Z,7.40
2023-01-18T11:07:02.900Z,6.50
2023-01-18T11:12:42.798Z,6.83
2023-01-18T11:17:56.233Z,8.03
2023-01-18T11:23:14.756Z,8.17
2023-01-18T11:28:20.837Z,8.23
2023-01-18T11:33:26.010Z,9.10
2023-01-18T11:38:33.629Z,8.50
2023-01-18T11:43:39.333Z,9.47
2023-01-18T11:48:48.585Z,8.73
2023-01-18T11:54:14.679Z,9.33
2023-01-18T11:59:31.297Z,6.67
2023-01-18T12:04:52.730Z,10.43
2023-01-18T12:10:00.885Z,9.73
2023-01-18T12:15:41.933Z,9.83
2023-01-18T12:21:12.931Z,10.13
2023-01-18T12:26:25.131Z,10.20
2023-01-18T12:31:40.523Z,10.40
2023-01-18T12:37:17.941Z,10.73
2023-01-18T12:42:36.493Z,11.40
2023-01-18T12:47:48.429Z,10.87
2023-01-18T12:53:00.840Z,9.27
2023-01-18T12:58:04.401Z,13.47
2023-01-18T13:03:13.338Z,10.73
2023-01-18T13:08:23.942Z,10.87
2023-01-18T13:13:28.130Z,12.37
2023-01-18T13:18:40.215Z,11.73
2023-01-18T13:24:07.808Z,10.23
2023-01-18T13:29:22.658Z,9.40
2023-01-18T13:34:48.037Z,9.30
2023-01-18T13:39:52.526Z,9.47
2023-01-18T13:45:28.967Z,10.73
2023-01-18T13:50:31.862Z,10.27
2023-01-18T13:55:34.941Z,11.13
2023-01-18T14:00:37.897Z,10.57
2023-01-18T14:05:47.032Z,10.60
2023-01-18T14:10:55.108Z,9.17
2023-01-18T14:16:00.364Z,9.47
2023-01-18T14:21:18.956Z,9.07
2023-01-18T14:26:24.110Z,9.53
2023-01-18T14:31:33.492Z,9.40
2023-01-18T14:36:36.919Z,8.47
2023-01-18T14:41:43.320Z,7.83
2023-01-18T14:46:57.835Z,6.73
2023-01-18T14:52:02.275Z,7.70
2023-01-18T14:57:10.206Z,8.33
2023-01-18T15:02:29.447Z,7.97
2023-01-18T15:07:34.669Z,7.50
2023-01-18T15:12:39.524Z,8.27
2023-01-18T15:17:43.978Z,7.33
2023-01-18T15:22:50.753Z,6.63
2023-01-18T15:27:55.258Z,7.93
2023-01-18T15:33:02.259Z,7.20
2023-01-18T15:38:06.231Z,8.33
2023-01-18T15:43:30.232Z,7.13
2023-01-18T15:48:58.729Z,8.87
2023-01-18T15:54:02.661Z,7.83
2023-01-18T15:59:10.131Z,8.77
2023-01-18T16:04:21.039Z,7.80
2023-01-18T16:09:25.118Z,7.00
2023-01-18T16:14:40.553Z,7.23
2023-01-18T16:19:51.689Z,7.33
2023-01-18T16:24:59.043Z,6.43
2023-01-18T16:30:14.939Z,5.33
2023-01-18T16:35:21.538Z,5.60
2023-01-18T16:40:25.396Z,5.57
2023-01-18T16:45:30.567Z,5.47
2023-01-18T16:50:35.294Z,6.70
2023-01-18T16:55:39.417Z,5.50
2023-01-18T17:00:50.271Z,5.87
2023-01-18T17:05:54.131Z,6.23
2023-01-18T17:10:57.927Z,6.90
2023-01-18T17:16:01.745Z,5.20
2023-01-18T17:21:05.419Z,6.37
2023-01-18T17:26:10.883Z,5.50
2023-01-18T17:31:14.423Z,7.47
2023-01-18T17:36:18.122Z,6.17
2023-01-18T17:41:27.279Z,7.67
2023-01-18T17:46:44.435Z,6.63
2023-01-18T17:51:49.493Z,5.07
2023-01-18T17:56:53.584Z,5.03
2023-01-18T18:01:57.233Z,5.50
2023-01-18T18:07:00.783Z,6.57
2023-01-18T18:12:08.230Z,5.33
2023-01-18T18:17:14.836Z,5.80
2023-01-18T18:22:21.469Z,5.90
2023-01-18T18:27:37.285Z,5.33
2023-01-18T18:32:48.138Z,6.00
2023-01-18T18:37:52.285Z,4.70
2023-01-18T18:43:02.333Z,5.63
2023-01-18T18:48:06.868Z,5.87
2023-01-18T18:53:10.560Z,5.47
2023-01-18T18:58:14.236Z,6.93
2023-01-18T19:03:19.837Z,6.00
2023-01-18T19:08:24.102Z,5.87
2023-01-18T19:13:28.344Z,7.63
2023-01-18T19:18:32.705Z,6.20
2023-01-18T19:23:36.673Z,6.73
2023-01-18T19:28:41.174Z,6.57
2023-01-18T19:33:44.897Z,8.63
2023-01-18T19:38:57.685Z,6.93
2023-01-18T19:44:04.079Z,7.60
2023-01-18T19:49:07.910Z,7.70
2023-01-18T19:54:12.773Z,7.47
2023-01-18T19:59:16.465Z,6.07
2023-01-18T20:04:20.298Z,6.70
2023-01-18T20:09:35.077Z,5.97
2023-01-18T20:15:15.825Z,6.47
2023-01-18T20:20:31.447Z,8.57
2023-01-18T20:25:36.299Z,7.70
2023-01-18T20:30:41.702Z,8.83
2023-01-18T20:35:45.466Z,8.50
2023-01-18T20:40:49.104Z,8.37
2023-01-18T20:46:06.976Z,9.10
2023-01-18T20:51:10.652Z,8.77
2023-01-18T20:56:28.363Z,9.53
2023-01-18T21:01:33.144Z,9.80
2023-01-18T21:06:37.010Z,9.87
2023-01-18T21:11:40.634Z,10.50
2023-01-18T21:16:44.564Z,8.13
2023-01-18T21:21:48.329Z,9.40
2023-01-18T21:26:51.997Z,8.60
2023-01-18T21:31:55.581Z,9.10
2023-01-18T21:36:59.271Z,8.73
2023-01-18T21:42:21.080Z,9.90
2023-01-18T21:47:24.777Z,9.70
2023-01-18T21:52:48.055Z,10.20
2023-01-18T21:58:10.523Z,8.57
2023-01-18T22:03:15.385Z,10.03
2023-01-18T22:08:19.033Z,10.43
2023-01-18T22:13:22.060Z,8.50
2023-01-18T22:18:25.673Z,9.73
2023-01-18T22:23:29.161Z,9.43
2023-01-18T22:28:33.082Z,8.30
2023-01-18T22:33:36.759Z,8.90
2023-01-18T22:38:40.346Z,8.30
2023-01-18T22:43:44.441Z,8.30
2023-01-18T22:48:48.910Z,7.03
2023-01-18T22:53:53.181Z,6.93
2023-01-18T22:58:56.861Z,8.03
2023-01-18T23:04:02.546Z,7.60
2023-01-18T23:09:06.472Z,6.23
2023-01-18T23:14:28.649Z,6.67
2023-01-18T23:19:33.606Z,7.53
2023-01-18T23:24:37.960Z,6.97
2023-01-18T23:29:41.751Z,7.60
2023-01-18T23:34:47.928Z,8.63
2023-01-18T23:40:10.193Z,9.47
2023-01-18T23:45:32.193Z,9.97
2023-01-18T23:50:54.155Z,11.00
2023-01-18T23:55:58.061Z,11.70
